createdAt,value
2023-05-17T00:00:43.968Z,8.40
2023-05-17T00:03:03.091Z,8.30
2023-05-17T00:05:15.711Z,8.30
2023-05-17T00:07:28.338Z,8.20
2023-05-17T00:09:40.981Z,9.00
2023-05-17T00:11:53.602Z,9.20
2023-05-17T00:14:06.233Z,8.90
2023-05-17T00:16:18.872Z,8.80
2023-05-17T00:18:31.570Z,8.60
2023-05-17T00:20:44.339Z,8.40
2023-05-17T00:22:56.915Z,8.30
2023-05-17T00:25:09.478Z,8.90
2023-05-17T00:27:22.080Z,9.00
2023-05-17T00:29:34.698Z,8.70
2023-05-17T00:31:47.247Z,8.40
2023-05-17T00:33:59.765Z,8.80
2023-05-17T00:36:12.300Z,9.40
2023-05-17T00:38:25.043Z,8.90
2023-05-17T00:40:37.639Z,8.90
2023-05-17T00:42:50.409Z,8.90
2023-05-17T00:45:03.323Z,9.20
2023-05-17T00:47:15.882Z,9.30
2023-05-17T00:49:29.097Z,9.40
2023-05-17T00:51:41.783Z,9.20
2023-05-17T00:53:54.499Z,9.60
2023-05-17T00:56:07.380Z,9.10
2023-05-17T00:58:20.207Z,8.80
2023-05-17T01:00:33.292Z,8.90
2023-05-17T01:02:48.742Z,9.10
2023-05-17T01:05:01.918Z,8.30
2023-05-17T01:07:15.088Z,8.90
2023-05-17T01:09:27.916Z,8.40
2023-05-17T01:12:11.046Z,8.40
2023-05-17T01:14:36.451Z,8.20
2023-05-17T01:16:56.787Z,8.30
2023-05-17T01:19:46.574Z,8.10
2023-05-17T01:22:17.833Z,7.70
2023-05-17T01:24:44.270Z,7.80
2023-05-17T01:26:59.196Z,8.00
2023-05-17T01:29:14.292Z,8.20
2023-05-17T01:31:27.866Z,11.50
2023-05-17T01:33:40.827Z,12.90
2023-05-17T01:35:53.455Z,10.70
2023-05-17T01:38:06.075Z,9.80
2023-05-17T01:40:19.731Z,11.60
2023-05-17T01:42:33.618Z,11.60
2023-05-17T01:45:11.240Z,8.70
2023-05-17T01:47:33.854Z,7.90
2023-05-17T01:49:53.992Z,7.60
2023-05-17T01:52:17.686Z,7.10
2023-05-17T01:54:36.968Z,7.70
2023-05-17T01:56:57.424Z,7.90
2023-05-17T01:59:15.613Z,7.30
2023-05-17T02:01:30.585Z,7.30
2023-05-17T02:03:43.718Z,6.60
2023-05-17T02:05:56.368Z,6.40
2023-05-17T02:08:08.954Z,6.30
2023-05-17T02:10:21.661Z,6.50
2023-05-17T02:12:34.347Z,6.00
2023-05-17T02:14:46.986Z,5.80
2023-05-17T02:16:59.677Z,5.70
2023-05-17T02:19:13.198Z,5.60
2023-05-17T02:21:25.815Z,6.10
2023-05-17T02:23:38.413Z,5.60
2023-05-17T02:25:51.119Z,5.70
2023-05-17T02:28:03.900Z,5.40
2023-05-17T02:30:18.145Z,5.00
2023-05-17T02:32:32.170Z,5.40
2023-05-17T02:34:44.811Z,5.30
2023-05-17T02:36:57.395Z,5.10
2023-05-17T02:39:10.083Z,5.00
2023-05-17T02:41:22.663Z,4.70
2023-05-17T02:43:35.303Z,4.60
2023-05-17T02:45:47.888Z,4.70
2023-05-17T02:48:00.557Z,4.50
2023-05-17T02:50:13.155Z,4.50
2023-05-17T02:52:25.841Z,4.30
2023-05-17T02:54:38.452Z,4.10
2023-05-17T02:56:51.323Z,4.30
2023-05-17T02:59:04.047Z,4.10
2023-05-17T03:01:16.634Z,4.30
2023-05-17T03:03:29.652Z,4.60
2023-05-17T03:05:42.370Z,4.60
2023-05-17T03:07:55.057Z,4.50
2023-05-17T03:10:08.044Z,4.30
2023-05-17T03:12:20.806Z,3.90
2023-05-17T03:14:33.418Z,4.30
2023-05-17T03:16:46.041Z,4.20
2023-05-17T03:18:58.839Z,4.40
2023-05-17T03:21:14.136Z,3.50
2023-05-17T03:23:26.783Z,3.40
2023-05-17T03:25:39.439Z,3.50
2023-05-17T03:27:52.105Z,3.60
2023-05-17T03:30:05.179Z,3.40
2023-05-17T03:32:17.835Z,3.30
2023-05-17T03:34:30.511Z,3.30
2023-05-17T03:36:43.256Z,3.40
2023-05-17T03:38:55.885Z,3.50
2023-05-17T03:41:08.916Z,3.40
2023-05-17T03:43:21.551Z,3.20
2023-05-17T03:45:34.427Z,2.90
2023-05-17T03:47:47.146Z,3.00
2023-05-17T03:49:59.847Z,3.30
2023-05-17T03:52:12.651Z,3.20
2023-05-17T03:54:25.392Z,3.00
2023-05-17T03:56:37.945Z,3.10
2023-05-17T03:58:50.594Z,3.10
2023-05-17T04:01:04.254Z,3.00
2023-05-17T04:03:19.269Z,2.90
2023-05-17T04:05:32.873Z,2.60
2023-05-17T04:07:45.652Z,2.80
2023-05-17T04:10:03.132Z,2.90
2023-05-17T04:12:16.399Z,2.60
2023-05-17T04:14:28.982Z,3.30
2023-05-17T04:16:41.549Z,3.20
2023-05-17T04:18:54.214Z,2.90
2023-05-17T04:21:07.048Z,2.50
2023-05-17T04:23:19.631Z,2.70
2023-05-17T04:25:32.321Z,2.70
2023-05-17T04:27:46.095Z,2.60
2023-05-17T04:29:58.675Z,2.80
2023-05-17T04:32:11.329Z,2.50
2023-05-17T04:34:24.968Z,2.50
2023-05-17T04:36:37.751Z,2.80
2023-05-17T04:38:50.425Z,2.60
2023-05-17T04:41:07.030Z,2.50
2023-05-17T04:43:19.680Z,2.60
2023-05-17T04:45:33.925Z,2.50
2023-05-17T04:47:47.452Z,2.40
2023-05-17T04:50:02.917Z,2.30
2023-05-17T04:52:15.672Z,2.20
2023-05-17T04:54:28.314Z,2.10
2023-05-17T04:56:41.160Z,2.30
2023-05-17T04:58:54.457Z,2.30
2023-05-17T05:01:07.077Z,2.20
2023-05-17T05:03:19.794Z,2.10
2023-05-17T05:05:32.404Z,2.20
2023-05-17T05:07:45.020Z,2.40
2023-05-17T05:09:57.714Z,2.30
2023-05-17T05:12:11.107Z,2.30
2023-05-17T05:14:23.746Z,2.30
2023-05-17T05:16:36.645Z,2.20
2023-05-17T05:18:49.373Z,2.20
2023-05-17T05:21:02.370Z,2.20
2023-05-17T05:23:15.062Z,2.10
2023-05-17T05:25:28.100Z,2.20
2023-05-17T05:27:40.962Z,2.30
2023-05-17T05:29:55.426Z,2.10
2023-05-17T05:32:08.653Z,2.10
2023-05-17T05:34:21.233Z,2.10
2023-05-17T05:36:34.478Z,2.10
2023-05-17T05:38:47.594Z,2.00
2023-05-17T05:41:00.132Z,2.50
2023-05-17T05:43:12.766Z,2.10
2023-05-17T05:45:25.384Z,2.10
2023-05-17T05:47:38.220Z,2.10
2023-05-17T05:49:50.820Z,2.10
2023-05-17T05:52:03.581Z,2.00
2023-05-17T05:54:16.306Z,2.00
2023-05-17T05:56:29.064Z,2.10
2023-05-17T05:58:41.660Z,2.20
2023-05-17T06:00:54.253Z,2.20
2023-05-17T06:03:06.962Z,2.00
2023-05-17T06:05:19.840Z,2.20
2023-05-17T06:07:32.424Z,2.20
2023-05-17T06:09:44.982Z,2.10
2023-05-17T06:11:57.574Z,2.20
2023-05-17T06:14:11.193Z,2.40
2023-05-17T06:16:23.792Z,2.30
2023-05-17T06:18:36.553Z,2.20
2023-05-17T06:20:49.309Z,2.20
2023-05-17T06:23:02.121Z,2.10
2023-05-17T06:25:15.079Z,2.10
2023-05-17T06:27:27.720Z,2.00
2023-05-17T06:29:40.342Z,2.10
2023-05-17T06:31:53.597Z,2.40
2023-05-17T06:34:06.323Z,2.40
2023-05-17T06:36:19.114Z,2.50
2023-05-17T06:38:31.708Z,2.50
2023-05-17T06:40:44.358Z,2.70
2023-05-17T06:42:56.982Z,2.30
2023-05-17T06:45:10.233Z,2.80
2023-05-17T06:47:22.824Z,2.60
2023-05-17T06:49:35.574Z,2.40
2023-05-17T06:51:48.827Z,2.70
2023-05-17T06:54:01.425Z,2.90
2023-05-17T06:56:14.678Z,2.60
2023-05-17T06:58:27.308Z,3.00
2023-05-17T07:00:39.928Z,3.10
2023-05-17T07:02:52.793Z,2.90
2023-05-17T07:05:06.874Z,3.00
2023-05-17T07:07:19.561Z,3.20
2023-05-17T07:09:32.176Z,3.20
2023-05-17T07:11:44.794Z,3.20
2023-05-17T07:13:57.434Z,3.10
2023-05-17T07:16:10.426Z,3.30
2023-05-17T07:18:23.059Z,3.10
2023-05-17T07:20:35.773Z,3.50
2023-05-17T07:22:48.476Z,3.30
2023-05-17T07:25:01.185Z,3.30
2023-05-17T07:27:13.957Z,3.50
2023-05-17T07:29:26.584Z,3.20
2023-05-17T07:31:39.199Z,3.30
2023-05-17T07:33:52.119Z,3.00
2023-05-17T07:36:05.692Z,3.30
2023-05-17T07:38:18.325Z,3.50
2023-05-17T07:40:30.938Z,3.60
2023-05-17T07:42:43.672Z,3.30
2023-05-17T07:44:56.468Z,3.20
2023-05-17T07:47:09.133Z,3.70
2023-05-17T07:49:23.821Z,3.70
2023-05-17T07:51:36.434Z,3.60
2023-05-17T07:53:48.994Z,3.70
2023-05-17T07:56:01.604Z,3.50
2023-05-17T07:58:14.141Z,3.50
2023-05-17T08:00:28.862Z,3.90
2023-05-17T08:02:41.526Z,3.80
2023-05-17T08:04:54.463Z,4.00
2023-05-17T08:07:07.383Z,3.70
2023-05-17T08:09:22.556Z,4.00
2023-05-17T08:11:35.341Z,3.90
2023-05-17T08:13:47.956Z,4.10
2023-05-17T08:16:12.832Z,4.00
2023-05-17T08:18:27.201Z,3.70
2023-05-17T08:20:39.941Z,4.20
2023-05-17T08:22:52.591Z,4.00
2023-05-17T08:25:07.443Z,4.10
2023-05-17T08:27:20.081Z,4.00
2023-05-17T08:29:32.632Z,4.00
2023-05-17T08:31:45.592Z,3.90
2023-05-17T08:34:00.896Z,3.90
2023-05-17T08:36:13.517Z,3.70
2023-05-17T08:38:26.280Z,4.20
2023-05-17T08:40:38.972Z,3.80
2023-05-17T08:42:52.625Z,3.70
2023-05-17T08:45:08.447Z,3.90
2023-05-17T08:47:29.997Z,3.90
2023-05-17T08:49:44.441Z,4.00
2023-05-17T08:52:00.743Z,4.00
2023-05-17T08:54:14.227Z,3.90
2023-05-17T08:56:28.986Z,3.60
2023-05-17T08:58:55.292Z,3.50
2023-05-17T09:01:10.027Z,3.50
2023-05-17T09:03:24.119Z,4.00
2023-05-17T09:05:36.941Z,3.70
2023-05-17T09:07:49.665Z,4.00
2023-05-17T09:10:05.716Z,4.10
2023-05-17T09:12:18.892Z,3.90
2023-05-17T09:14:35.753Z,4.00
2023-05-17T09:16:59.850Z,3.50
2023-05-17T09:19:17.712Z,3.80
2023-05-17T09:21:31.595Z,3.80
2023-05-17T09:23:57.681Z,4.80
2023-05-17T09:26:18.211Z,4.00
2023-05-17T09:28:38.265Z,12.40
2023-05-17T09:30:50.889Z,5.00
2023-05-17T09:33:08.597Z,17.70
2023-05-17T09:35:29.388Z,27.80
2023-05-17T09:37:42.976Z,13.10
2023-05-17T09:39:55.638Z,6.90
2023-05-17T09:42:09.500Z,3.90
2023-05-17T09:44:22.849Z,8.00
2023-05-17T09:46:38.848Z,6.50
2023-05-17T09:48:56.462Z,11.60
2023-05-17T09:51:09.336Z,4.50
2023-05-17T09:53:26.303Z,3.70
2023-05-17T09:55:39.417Z,4.00
2023-05-17T09:57:52.184Z,4.60
2023-05-17T10:00:11.910Z,4.60
2023-05-17T10:02:30.984Z,4.20
2023-05-17T10:04:44.871Z,3.60
2023-05-17T10:07:00.143Z,3.80
2023-05-17T10:09:15.730Z,3.40
2023-05-17T10:11:34.235Z,3.40
2023-05-17T10:14:18.537Z,3.50
2023-05-17T10:16:34.643Z,3.50
2023-05-17T10:18:49.160Z,3.60
2023-05-17T10:21:02.116Z,3.90
2023-05-17T10:23:15.533Z,3.40
2023-05-17T10:25:28.544Z,3.30
2023-05-17T10:27:41.917Z,3.80
2023-05-17T10:29:55.503Z,3.70
2023-05-17T10:32:08.652Z,3.30
2023-05-17T10:34:21.372Z,3.30
2023-05-17T10:36:34.310Z,3.40
2023-05-17T10:38:47.529Z,3.50
2023-05-17T10:41:02.280Z,3.80
2023-05-17T10:43:16.299Z,3.50
2023-05-17T10:45:29.365Z,3.40
2023-05-17T10:47:43.193Z,3.20
2023-05-17T10:49:55.972Z,3.30
2023-05-17T10:52:27.384Z,3.30
2023-05-17T10:54:43.087Z,3.30
2023-05-17T10:56:55.812Z,3.60
2023-05-17T10:59:22.852Z,3.30
2023-05-17T11:01:57.514Z,3.10
2023-05-17T11:04:27.042Z,3.10
2023-05-17T11:06:40.402Z,2.90
2023-05-17T11:09:16.490Z,4.30
2023-05-17T11:11:29.106Z,3.10
2023-05-17T11:13:46.455Z,3.30
2023-05-17T11:16:07.534Z,3.30
2023-05-17T11:18:30.049Z,3.40
2023-05-17T11:20:44.892Z,3.80
2023-05-17T11:23:15.257Z,3.20
2023-05-17T11:25:30.379Z,3.40
2023-05-17T11:27:48.530Z,3.60
2023-05-17T11:30:09.298Z,2.90
2023-05-17T11:32:32.556Z,2.90
2023-05-17T11:34:52.603Z,3.00
2023-05-17T11:37:11.933Z,3.20
2023-05-17T11:39:25.426Z,2.70
2023-05-17T11:41:51.385Z,2.90
2023-05-17T11:44:04.420Z,3.10
2023-05-17T11:46:22.657Z,3.00
2023-05-17T11:48:35.476Z,2.90
2023-05-17T11:50:49.576Z,2.80
2023-05-17T11:53:04.024Z,2.90
2023-05-17T11:55:17.240Z,2.90
2023-05-17T11:57:31.413Z,2.70
2023-05-17T11:59:44.213Z,2.90
2023-05-17T12:01:56.848Z,2.80
2023-05-17T12:04:09.461Z,2.70
2023-05-17T12:06:22.524Z,2.50
2023-05-17T12:08:37.004Z,3.10
2023-05-17T12:10:51.804Z,3.00
2023-05-17T12:13:04.863Z,3.00
2023-05-17T12:15:20.877Z,3.00
2023-05-17T12:17:40.067Z,3.10
2023-05-17T12:19:54.184Z,2.70
2023-05-17T12:22:14.597Z,2.90
2023-05-17T12:24:37.569Z,2.70
2023-05-17T12:26:50.393Z,3.10
2023-05-17T12:29:03.021Z,3.00
2023-05-17T12:31:18.499Z,2.70
2023-05-17T12:33:33.714Z,2.70
2023-05-17T12:35:46.551Z,2.90
2023-05-17T12:38:00.266Z,2.70
2023-05-17T12:40:13.269Z,3.00
2023-05-17T12:42:26.011Z,2.90
2023-05-17T12:44:39.148Z,2.90
2023-05-17T12:46:54.020Z,2.90
2023-05-17T12:49:12.053Z,2.70
2023-05-17T12:51:25.067Z,2.40
2023-05-17T12:53:42.116Z,2.80
2023-05-17T12:55:57.421Z,2.80
2023-05-17T12:58:09.972Z,3.10
2023-05-17T13:00:22.783Z,3.00
2023-05-17T13:02:35.379Z,2.50
2023-05-17T13:04:48.125Z,2.50
2023-05-17T13:07:04.232Z,2.40
2023-05-17T13:09:18.610Z,2.50
2023-05-17T13:11:31.780Z,2.50
2023-05-17T13:13:44.373Z,2.00
2023-05-17T13:15:58.280Z,2.10
2023-05-17T13:18:16.207Z,2.60
2023-05-17T13:20:29.275Z,2.30
2023-05-17T13:22:49.313Z,2.60
2023-05-17T13:25:03.212Z,2.40
2023-05-17T13:27:17.056Z,2.30
2023-05-17T13:29:39.025Z,2.70
2023-05-17T13:31:53.065Z,2.50
2023-05-17T13:34:06.057Z,2.60
2023-05-17T13:36:18.711Z,2.90
2023-05-17T13:38:31.321Z,2.80
2023-05-17T13:40:44.237Z,2.60
2023-05-17T13:42:56.977Z,2.90
2023-05-17T13:45:11.747Z,2.90
2023-05-17T13:47:24.659Z,2.80
2023-05-17T13:49:37.724Z,2.70
2023-05-17T13:51:50.675Z,2.80
2023-05-17T13:54:05.238Z,2.70
2023-05-17T13:56:18.231Z,2.80
2023-05-17T13:58:30.772Z,2.70
2023-05-17T14:00:44.478Z,2.70
2023-05-17T14:02:57.195Z,3.00
2023-05-17T14:05:10.158Z,3.10
2023-05-17T14:07:23.475Z,2.80
2023-05-17T14:09:36.890Z,2.70
2023-05-17T14:11:49.599Z,2.70
2023-05-17T14:14:03.428Z,2.50
2023-05-17T14:16:16.167Z,2.70
2023-05-17T14:18:29.094Z,3.20
2023-05-17T14:20:41.704Z,3.10
2023-05-17T14:22:54.336Z,2.70
2023-05-17T14:25:08.112Z,3.20
2023-05-17T14:27:24.093Z,3.00
2023-05-17T14:29:36.646Z,3.20
2023-05-17T14:31:49.277Z,3.10
2023-05-17T14:34:03.691Z,3.00
2023-05-17T14:36:16.380Z,2.90
2023-05-17T14:38:29.038Z,3.00
2023-05-17T14:40:41.663Z,2.90
2023-05-17T14:42:55.229Z,2.80
2023-05-17T14:45:08.958Z,2.80
2023-05-17T14:47:21.610Z,2.70
2023-05-17T14:49:34.623Z,2.80
2023-05-17T14:51:47.144Z,3.00
2023-05-17T14:53:59.766Z,3.00
2023-05-17T14:56:12.546Z,3.00
2023-05-17T14:58:25.565Z,2.70
2023-05-17T15:00:38.314Z,2.70
2023-05-17T15:02:51.273Z,2.80
2023-05-17T15:05:04.442Z,3.30
2023-05-17T15:07:17.114Z,3.20
2023-05-17T15:09:31.052Z,2.80
2023-05-17T15:11:44.635Z,2.90
2023-05-17T15:13:57.408Z,2.80
2023-05-17T15:16:10.225Z,3.10
2023-05-17T15:18:22.942Z,2.90
2023-05-17T15:20:38.680Z,3.00
2023-05-17T15:22:51.480Z,3.20
2023-05-17T15:25:05.466Z,3.00
2023-05-17T15:27:18.149Z,2.70
2023-05-17T15:29:31.279Z,3.20
2023-05-17T15:31:44.317Z,3.00
2023-05-17T15:33:57.639Z,3.10
2023-05-17T15:36:13.126Z,2.80
2023-05-17T15:38:26.099Z,3.00
2023-05-17T15:40:38.788Z,2.80
2023-05-17T15:42:52.598Z,2.70
2023-05-17T15:45:06.376Z,2.70
2023-05-17T15:47:19.387Z,2.80
2023-05-17T15:49:33.609Z,3.10
2023-05-17T15:51:46.703Z,3.10
2023-05-17T15:53:59.285Z,3.10
2023-05-17T15:56:11.960Z,3.10
2023-05-17T15:58:27.785Z,2.90
2023-05-17T16:00:40.404Z,3.10
2023-05-17T16:02:53.117Z,3.10
2023-05-17T16:05:07.243Z,2.90
2023-05-17T16:07:19.894Z,3.10
2023-05-17T16:09:32.455Z,2.90
2023-05-17T16:11:45.080Z,2.70
2023-05-17T16:13:57.830Z,3.00
2023-05-17T16:16:12.310Z,3.10
2023-05-17T16:18:25.129Z,3.00
2023-05-17T16:20:37.817Z,3.00
2023-05-17T16:22:51.771Z,2.80
2023-05-17T16:25:05.291Z,3.20
2023-05-17T16:27:17.810Z,3.20
2023-05-17T16:29:30.653Z,3.50
2023-05-17T16:31:43.863Z,4.00
2023-05-17T16:33:56.557Z,3.70
2023-05-17T16:36:09.310Z,3.20
2023-05-17T16:38:21.865Z,3.30
2023-05-17T16:40:34.476Z,2.90
2023-05-17T16:42:47.079Z,3.00
2023-05-17T16:44:59.645Z,2.80
2023-05-17T16:47:12.271Z,3.00
2023-05-17T16:49:24.974Z,2.80
2023-05-17T16:51:37.594Z,3.10
2023-05-17T16:53:50.198Z,2.90
2023-05-17T16:56:03.018Z,2.70
2023-05-17T16:58:15.654Z,2.80
2023-05-17T17:00:29.926Z,3.20
2023-05-17T17:02:42.995Z,2.70
2023-05-17T17:04:55.910Z,2.90
2023-05-17T17:07:08.949Z,2.90
2023-05-17T17:09:21.732Z,2.80
2023-05-17T17:11:34.438Z,3.20
2023-05-17T17:13:47.268Z,3.00
2023-05-17T17:16:00.012Z,3.20
2023-05-17T17:18:12.683Z,2.70
2023-05-17T17:20:25.407Z,2.70
2023-05-17T17:22:37.963Z,2.70
2023-05-17T17:24:50.552Z,2.70
2023-05-17T17:27:03.344Z,3.10
2023-05-17T17:29:15.924Z,2.80
2023-05-17T17:31:28.597Z,2.90
2023-05-17T17:33:41.220Z,2.80
2023-05-17T17:35:53.832Z,2.90
2023-05-17T17:38:06.418Z,3.10
2023-05-17T17:40:19.114Z,3.30
2023-05-17T17:42:32.326Z,3.00
2023-05-17T17:44:44.993Z,3.20
2023-05-17T17:46:57.701Z,3.80
2023-05-17T17:49:10.646Z,3.80
2023-05-17T17:51:23.445Z,3.40
2023-05-17T17:53:36.182Z,3.80
2023-05-17T17:55:48.914Z,3.50
2023-05-17T17:58:02.002Z,3.80
2023-05-17T18:00:16.340Z,3.50
2023-05-17T18:02:28.985Z,3.60
2023-05-17T18:04:41.661Z,3.60
2023-05-17T18:07:18.803Z,2.70
2023-05-17T18:09:31.429Z,3.40
2023-05-17T18:11:44.020Z,3.40
2023-05-17T18:13:56.660Z,3.30
2023-05-17T18:16:09.266Z,3.50
2023-05-17T18:18:21.924Z,3.60
2023-05-17T18:20:34.540Z,5.40
2023-05-17T18:22:47.311Z,5.10
2023-05-17T18:24:59.994Z,4.90
2023-05-17T18:27:14.043Z,3.80
2023-05-17T18:29:26.618Z,3.50
2023-05-17T18:31:39.249Z,4.00
2023-05-17T18:33:54.302Z,5.40
2023-05-17T18:36:08.345Z,5.10
2023-05-17T18:38:20.929Z,5.30
2023-05-17T18:40:33.606Z,5.80
2023-05-17T18:42:46.290Z,7.70
2023-05-17T18:44:59.756Z,7.70
2023-05-17T18:47:12.524Z,7.20
2023-05-17T18:49:26.475Z,5.70
2023-05-17T18:51:39.290Z,5.70
2023-05-17T18:53:51.922Z,5.80
2023-05-17T18:56:04.705Z,7.10
2023-05-17T18:58:17.315Z,7.90
2023-05-17T19:00:30.099Z,7.90
2023-05-17T19:02:42.994Z,8.40
2023-05-17T19:04:55.675Z,7.90
2023-05-17T19:07:08.226Z,8.70
2023-05-17T19:09:20.806Z,8.70
2023-05-17T19:11:33.481Z,9.00
2023-05-17T19:13:46.265Z,8.10
2023-05-17T19:16:00.397Z,8.40
2023-05-17T19:18:13.063Z,9.10
2023-05-17T19:20:26.613Z,9.10
2023-05-17T19:22:39.345Z,12.30
2023-05-17T19:24:52.167Z,10.50
2023-05-17T19:27:05.702Z,11.10
2023-05-17T19:29:18.424Z,10.20
2023-05-17T19:31:31.207Z,10.20
2023-05-17T19:33:43.936Z,11.00
2023-05-17T19:35:56.559Z,11.20
2023-05-17T19:38:09.655Z,10.90
2023-05-17T19:40:23.152Z,10.80
2023-05-17T19:42:35.765Z,12.80
2023-05-17T19:44:48.856Z,20.30
2023-05-17T19:47:01.662Z,22.50
2023-05-17T19:49:14.262Z,21.60
2023-05-17T19:51:26.958Z,20.60
2023-05-17T19:53:51.758Z,20.60
2023-05-17T19:56:08.115Z,17.30
2023-05-17T19:58:20.776Z,17.60
2023-05-17T20:00:33.456Z,17.80
2023-05-17T20:02:49.147Z,18.00
2023-05-17T20:05:06.131Z,17.00
2023-05-17T20:07:20.387Z,15.40
2023-05-17T20:09:33.013Z,14.70
2023-05-17T20:11:45.823Z,14.70
2023-05-17T20:13:58.470Z,13.90
2023-05-17T20:16:14.009Z,12.80
2023-05-17T20:18:29.873Z,11.30
2023-05-17T20:20:42.627Z,11.60
2023-05-17T20:22:55.388Z,12.50
2023-05-17T20:25:07.994Z,10.30
2023-05-17T20:27:20.648Z,10.70
2023-05-17T20:29:33.261Z,9.80
2023-05-17T20:31:45.894Z,9.40
2023-05-17T20:33:59.053Z,9.30
2023-05-17T20:36:14.122Z,8.50
2023-05-17T20:38:26.709Z,8.50
2023-05-17T20:40:39.329Z,8.60
2023-05-17T20:42:53.449Z,8.40
2023-05-17T20:45:06.837Z,9.20
2023-05-17T20:47:20.373Z,9.50
2023-05-17T20:49:32.962Z,9.70
2023-05-17T20:51:46.085Z,10.40
2023-05-17T20:53:59.151Z,10.80
2023-05-17T20:56:14.082Z,9.90
2023-05-17T20:58:28.955Z,10.30
2023-05-17T21:00:42.013Z,9.40
2023-05-17T21:02:54.732Z,8.30
2023-05-17T21:05:09.119Z,8.30
2023-05-17T21:07:22.394Z,7.50
2023-05-17T21:09:35.166Z,7.30
2023-05-17T21:11:47.774Z,6.50
2023-05-17T21:14:00.463Z,6.20
2023-05-17T21:16:13.064Z,5.40
2023-05-17T21:18:25.823Z,6.10
2023-05-17T21:20:39.139Z,6.40
2023-05-17T21:22:51.738Z,7.20
2023-05-17T21:25:04.882Z,7.00
2023-05-17T21:27:17.576Z,6.50
2023-05-17T21:29:30.112Z,5.70
2023-05-17T21:31:42.748Z,5.60
2023-05-17T21:33:55.899Z,5.10
2023-05-17T21:36:08.439Z,5.20
2023-05-17T21:38:21.120Z,5.10
2023-05-17T21:40:33.921Z,5.10
2023-05-17T21:42:47.804Z,5.30
2023-05-17T21:45:00.418Z,5.10
2023-05-17T21:47:13.119Z,4.90
2023-05-17T21:49:25.772Z,5.90
2023-05-17T21:51:38.865Z,5.70
2023-05-17T21:53:51.498Z,6.60
2023-05-17T21:56:04.321Z,6.70
2023-05-17T21:58:21.247Z,7.40
2023-05-17T22:00:33.802Z,7.10
2023-05-17T22:02:47.414Z,7.10
2023-05-17T22:05:00.030Z,6.20
2023-05-17T22:07:13.944Z,5.20
2023-05-17T22:09:26.557Z,5.10
2023-05-17T22:11:42.828Z,4.20
2023-05-17T22:13:56.079Z,4.60
2023-05-17T22:16:08.894Z,4.80
2023-05-17T22:18:21.553Z,4.60
2023-05-17T22:20:34.178Z,4.70
2023-05-17T22:22:46.768Z,4.50
2023-05-17T22:24:59.430Z,4.60
2023-05-17T22:27:12.126Z,4.50
2023-05-17T22:29:24.904Z,4.50
2023-05-17T22:31:37.751Z,4.60
2023-05-17T22:33:53.686Z,4.70
2023-05-17T22:36:06.626Z,4.50
2023-05-17T22:38:19.597Z,4.70
2023-05-17T22:40:32.613Z,4.50
2023-05-17T22:42:45.547Z,4.50
2023-05-17T22:44:58.164Z,4.50
2023-05-17T22:47:14.557Z,5.00
2023-05-17T22:49:36.613Z,4.90
2023-05-17T22:51:49.253Z,4.60
2023-05-17T22:54:03.236Z,4.60
2023-05-17T22:56:15.938Z,3.90
2023-05-17T22:58:28.568Z,4.60
2023-05-17T23:00:41.595Z,4.10
2023-05-17T23:02:54.217Z,4.40
2023-05-17T23:05:07.187Z,4.70
2023-05-17T23:07:19.785Z,4.40
2023-05-17T23:09:37.967Z,4.60
2023-05-17T23:11:50.567Z,4.40
2023-05-17T23:14:03.235Z,4.10
2023-05-17T23:16:15.885Z,4.20
2023-05-17T23:18:28.531Z,4.50
2023-05-17T23:20:42.071Z,4.50
2023-05-17T23:22:54.711Z,4.20
2023-05-17T23:25:07.639Z,4.70
2023-05-17T23:27:21.918Z,4.50
2023-05-17T23:29:34.924Z,4.60
2023-05-17T23:31:48.586Z,4.60
2023-05-17T23:34:01.297Z,4.50
2023-05-17T23:36:13.841Z,4.40
2023-05-17T23:38:26.834Z,4.70
2023-05-17T23:40:40.829Z,5.10
2023-05-17T23:42:53.446Z,5.00
2023-05-17T23:45:07.422Z,4.60
2023-05-17T23:47:20.023Z,4.90
2023-05-17T23:49:32.644Z,4.50
2023-05-17T23:51:46.485Z,4.50
2023-05-17T23:53:59.043Z,4.30
2023-05-17T23:56:11.703Z,4.50
2023-05-17T23:58:26.016Z,4.60
